createdAt,value
2023-03-24T00:01:27.085Z,2.53
2023-03-24T00:03:56.269Z,2.63
2023-03-24T00:06:26.361Z,2.10
2023-03-24T00:08:55.398Z,1.90
2023-03-24T00:11:25.393Z,2.23
2023-03-24T00:13:58.815Z,2.07
2023-03-24T00:16:27.433Z,2.10
2023-03-24T00:18:55.954Z,2.00
2023-03-24T00:21:26.075Z,2.10
2023-03-24T00:23:58.215Z,1.80
2023-03-24T00:26:28.901Z,1.47
2023-03-24T00:28:58.547Z,2.10
2023-03-24T00:31:27.989Z,1.60
2023-03-24T00:33:56.455Z,1.73
2023-03-24T00:36:26.769Z,1.70
2023-03-24T00:38:56.319Z,1.90
2023-03-24T00:41:29.375Z,1.63
2023-03-24T00:44:00.545Z,2.43
2023-03-24T00:46:30.027Z,2.00
2023-03-24T00:49:05.764Z,2.33
2023-03-24T00:51:37.653Z,1.93
2023-03-24T00:54:06.836Z,1.93
2023-03-24T00:56:40.062Z,1.83
2023-03-24T00:59:14.909Z,1.60
2023-03-24T01:01:43.338Z,1.77
2023-03-24T01:04:12.490Z,1.50
2023-03-24T01:06:41.153Z,1.27
2023-03-24T01:09:10.923Z,1.70
2023-03-24T01:11:41.641Z,1.90
2023-03-24T01:14:14.104Z,1.57
2023-03-24T01:16:43.317Z,1.90
2023-03-24T01:19:12.705Z,1.97
2023-03-24T01:21:42.601Z,1.47
2023-03-24T01:24:14.381Z,1.70
2023-03-24T01:26:42.548Z,2.10
2023-03-24T01:29:13.180Z,2.10
2023-03-24T01:31:41.406Z,1.43
2023-03-24T01:34:10.647Z,1.90
2023-03-24T01:36:38.862Z,2.20
2023-03-24T01:39:07.453Z,1.60
2023-03-24T01:41:41.061Z,1.83
2023-03-24T01:44:32.900Z,1.70
2023-03-24T01:47:02.441Z,1.60
2023-03-24T01:49:37.068Z,1.77
2023-03-24T01:52:10.347Z,2.40
2023-03-24T01:54:42.878Z,1.70
2023-03-24T01:57:17.857Z,2.00
2023-03-24T01:59:50.486Z,2.00
2023-03-24T02:02:46.192Z,1.60
2023-03-24T02:05:20.714Z,2.30
2023-03-24T02:07:54.221Z,1.87
2023-03-24T02:10:25.162Z,1.97
2023-03-24T02:12:53.350Z,1.87
2023-03-24T02:15:25.315Z,2.60
2023-03-24T02:18:04.702Z,1.40
2023-03-24T02:21:03.142Z,1.83
2023-03-24T02:23:51.328Z,2.30
2023-03-24T02:26:38.171Z,1.80
2023-03-24T02:29:35.047Z,1.90
2023-03-24T02:32:34.943Z,1.80
2023-03-24T02:35:54.124Z,2.37
2023-03-24T02:38:51.400Z,2.07
2023-03-24T02:41:27.187Z,2.50
2023-03-24T02:44:04.804Z,2.07
2023-03-24T02:46:42.018Z,2.10
2023-03-24T02:49:20.845Z,2.03
2023-03-24T02:51:56.926Z,2.90
2023-03-24T02:54:38.168Z,2.30
2023-03-24T02:57:13.405Z,2.60
2023-03-24T03:00:13.744Z,2.10
2023-03-24T03:03:09.958Z,2.80
2023-03-24T03:05:45.933Z,2.90
2023-03-24T03:08:21.293Z,2.40
2023-03-24T03:10:54.549Z,2.40
2023-03-24T03:13:28.709Z,2.60
2023-03-24T03:16:05.553Z,2.87
2023-03-24T03:18:39.562Z,2.37
2023-03-24T03:21:12.190Z,2.67
2023-03-24T03:23:44.533Z,2.40
2023-03-24T03:26:17.876Z,2.23
2023-03-24T03:28:58.332Z,2.10
2023-03-24T03:31:35.395Z,2.50
2023-03-24T03:34:12.962Z,2.50
2023-03-24T03:36:47.223Z,2.30
2023-03-24T03:39:20.749Z,2.80
2023-03-24T03:41:49.055Z,2.80
2023-03-24T03:44:19.135Z,2.53
2023-03-24T03:46:48.287Z,3.27
2023-03-24T03:49:23.315Z,2.60
2023-03-24T03:51:54.087Z,2.07
2023-03-24T03:54:25.234Z,2.40
2023-03-24T03:56:54.872Z,2.20
2023-03-24T03:59:33.678Z,2.37
2023-03-24T04:02:13.417Z,3.03
2023-03-24T04:05:11.064Z,2.70
2023-03-24T04:08:12.429Z,3.37
2023-03-24T04:11:20.746Z,2.97
2023-03-24T04:14:24.373Z,2.83
2023-03-24T04:17:29.579Z,3.17
2023-03-24T04:20:11.093Z,2.43
2023-03-24T04:22:54.073Z,2.77
2023-03-24T04:25:31.337Z,2.73
2023-03-24T04:28:04.311Z,2.83
2023-03-24T04:30:43.273Z,3.00
2023-03-24T04:33:22.294Z,3.30
2023-03-24T04:36:06.296Z,3.30
2023-03-24T04:38:53.535Z,3.00
2023-03-24T04:41:38.795Z,3.33
2023-03-24T04:44:21.589Z,3.00
2023-03-24T04:47:23.249Z,3.57
2023-03-24T04:50:15.311Z,3.13
2023-03-24T04:52:44.243Z,2.90
2023-03-24T04:55:41.285Z,2.57
2023-03-24T04:58:12.001Z,2.17
2023-03-24T05:00:41.839Z,1.27
2023-03-24T05:03:14.514Z,1.97
2023-03-24T05:05:46.010Z,1.30
2023-03-24T05:08:14.783Z,1.63
2023-03-24T05:10:42.850Z,1.63
2023-03-24T05:13:14.115Z,1.90
2023-03-24T05:15:48.061Z,1.90
2023-03-24T05:18:38.301Z,1.87
2023-03-24T05:21:16.183Z,2.10
2023-03-24T05:23:44.425Z,2.07
2023-03-24T05:26:12.439Z,1.80
2023-03-24T05:29:01.370Z,1.80
2023-03-24T05:31:29.706Z,1.60
2023-03-24T05:34:08.004Z,2.00
2023-03-24T05:36:48.038Z,2.07
2023-03-24T05:39:21.199Z,2.20
2023-03-24T05:41:58.522Z,2.43
2023-03-24T05:44:27.341Z,1.63
2023-03-24T05:47:05.712Z,2.17
2023-03-24T05:49:34.032Z,2.33
2023-03-24T05:52:03.746Z,2.50
2023-03-24T05:54:34.030Z,2.23
2023-03-24T05:57:17.345Z,1.93
2023-03-24T06:00:06.844Z,1.90
2023-03-24T06:03:06.093Z,1.80
2023-03-24T06:05:50.730Z,1.77
2023-03-24T06:08:21.548Z,1.50
2023-03-24T06:10:49.777Z,1.73
2023-03-24T06:13:18.177Z,1.63
2023-03-24T06:15:48.670Z,1.47
2023-03-24T06:18:30.918Z,1.73
2023-03-24T06:21:03.865Z,1.63
2023-03-24T06:23:35.586Z,1.80
2023-03-24T06:26:13.999Z,1.27
2023-03-24T06:28:59.645Z,1.90
2023-03-24T06:31:49.871Z,2.23
2023-03-24T06:34:19.472Z,2.53
2023-03-24T06:37:01.587Z,2.43
2023-03-24T06:39:31.432Z,2.43
2023-03-24T06:42:00.265Z,2.50
2023-03-24T06:44:37.658Z,2.40
2023-03-24T06:47:06.019Z,2.07
2023-03-24T06:49:38.051Z,2.47
2023-03-24T06:52:06.906Z,1.73
2023-03-24T06:54:41.647Z,2.63
2023-03-24T06:57:10.927Z,2.00
2023-03-24T06:59:57.892Z,2.53
2023-03-24T07:02:35.531Z,2.13
2023-03-24T07:05:08.001Z,2.70
2023-03-24T07:10:32.063Z,2.13
2023-03-24T07:13:01.603Z,2.67
2023-03-24T07:15:30.356Z,2.27
2023-03-24T07:17:59.536Z,3.13
2023-03-24T07:20:59.662Z,2.23
2023-03-24T07:23:27.913Z,2.40
2023-03-24T07:26:06.293Z,3.00
2023-03-24T07:28:49.867Z,2.70
2023-03-24T07:31:53.593Z,2.17
2023-03-24T07:34:22.177Z,2.30
2023-03-24T07:36:50.196Z,1.70
2023-03-24T07:39:19.176Z,1.93
2023-03-24T07:41:49.288Z,2.50
2023-03-24T07:44:27.652Z,2.00
2023-03-24T07:46:56.222Z,2.40
2023-03-24T07:49:24.707Z,1.57
2023-03-24T07:52:06.364Z,1.60
2023-03-24T07:54:48.954Z,2.07
2023-03-24T07:57:44.172Z,2.50
2023-03-24T08:00:16.002Z,2.00
2023-03-24T08:02:51.932Z,2.00
2023-03-24T08:05:43.716Z,1.73
2023-03-24T08:08:26.069Z,2.67
2023-03-24T08:10:56.087Z,2.60
2023-03-24T08:13:25.554Z,1.90
2023-03-24T08:15:56.127Z,2.70
2023-03-24T08:18:25.257Z,2.47
2023-03-24T08:20:59.744Z,2.40
2023-03-24T08:23:28.601Z,2.53
2023-03-24T08:25:56.664Z,2.63
2023-03-24T08:28:26.504Z,2.43
2023-03-24T08:30:54.963Z,2.00
2023-03-24T08:33:22.994Z,2.60
2023-03-24T08:35:57.987Z,2.30
2023-03-24T08:38:30.556Z,2.53
2023-03-24T08:41:02.889Z,2.33
2023-03-24T08:43:33.064Z,2.03
2023-03-24T08:46:03.806Z,1.77
2023-03-24T08:48:32.814Z,1.83
2023-03-24T08:51:01.207Z,2.20
2023-03-24T08:53:29.259Z,1.90
2023-03-24T08:55:59.512Z,1.50
2023-03-24T08:58:27.543Z,2.43
2023-03-24T09:00:57.667Z,1.90
2023-03-24T09:03:27.115Z,2.50
2023-03-24T09:05:58.298Z,2.17
2023-03-24T09:08:27.628Z,2.73
2023-03-24T09:10:58.012Z,1.90
2023-03-24T09:13:27.234Z,2.17
2023-03-24T09:16:02.812Z,2.27
2023-03-24T09:18:31.538Z,2.00
2023-03-24T09:21:01.689Z,2.07
2023-03-24T09:23:32.149Z,2.40
2023-03-24T09:26:03.152Z,2.10
2023-03-24T09:28:31.463Z,1.83
2023-03-24T09:31:03.115Z,2.97
2023-03-24T09:33:31.376Z,2.80
2023-03-24T09:36:01.445Z,2.70
2023-03-24T09:38:30.843Z,3.03
2023-03-24T09:41:04.345Z,3.40
2023-03-24T09:43:38.750Z,2.70
2023-03-24T09:46:15.227Z,2.60
2023-03-24T09:48:46.914Z,2.83
2023-03-24T09:51:21.439Z,2.10
2023-03-24T09:53:57.395Z,2.90
2023-03-24T09:56:29.619Z,3.00
2023-03-24T09:59:05.857Z,2.70
2023-03-24T10:01:37.070Z,3.70
2023-03-24T10:04:08.912Z,3.00
2023-03-24T10:06:42.281Z,2.70
2023-03-24T10:09:24.308Z,2.37
2023-03-24T10:12:03.350Z,2.70
2023-03-24T10:14:47.171Z,2.93
2023-03-24T10:17:29.766Z,2.67
2023-03-24T10:20:04.429Z,2.27
2023-03-24T10:22:38.084Z,2.40
2023-03-24T10:25:14.415Z,2.10
2023-03-24T10:27:47.652Z,2.17
2023-03-24T10:30:19.711Z,2.37
2023-03-24T10:32:49.161Z,2.13
2023-03-24T10:35:23.326Z,2.90
2023-03-24T10:37:53.392Z,3.00
2023-03-24T10:40:25.444Z,2.57
2023-03-24T10:43:07.407Z,2.93
2023-03-24T10:45:40.930Z,2.90
2023-03-24T10:48:14.574Z,2.10
2023-03-24T10:50:45.914Z,2.27
2023-03-24T10:53:19.585Z,2.60
2023-03-24T10:55:49.143Z,1.93
2023-03-24T10:58:28.992Z,2.77
2023-03-24T11:00:59.808Z,2.87
2023-03-24T11:03:33.092Z,2.63
2023-03-24T11:06:03.381Z,2.67
2023-03-24T11:08:36.056Z,2.80
2023-03-24T11:11:16.189Z,2.47
2023-03-24T11:13:55.653Z,2.20
2023-03-24T11:16:31.248Z,2.33
2023-03-24T11:19:02.968Z,2.10
2023-03-24T11:21:35.202Z,2.20
2023-03-24T11:24:07.933Z,2.10
2023-03-24T11:26:40.255Z,1.63
2023-03-24T11:29:14.851Z,2.03
2023-03-24T11:31:46.361Z,2.20
2023-03-24T11:34:24.102Z,1.97
2023-03-24T11:36:55.806Z,2.07
2023-03-24T11:39:27.198Z,2.03
2023-03-24T11:42:07.056Z,1.60
2023-03-24T11:44:46.540Z,1.80
2023-03-24T11:47:22.547Z,2.53
2023-03-24T11:49:58.961Z,1.77
2023-03-24T11:52:32.868Z,1.90
2023-03-24T11:55:01.671Z,2.23
2023-03-24T11:57:45.894Z,1.77
2023-03-24T12:00:21.436Z,2.93
2023-03-24T12:03:12.250Z,2.00
2023-03-24T12:05:45.948Z,1.57
2023-03-24T12:08:25.095Z,2.37
2023-03-24T12:11:06.668Z,2.10
2023-03-24T12:13:37.848Z,2.63
2023-03-24T12:16:39.930Z,1.73
2023-03-24T12:19:30.459Z,2.40
2023-03-24T12:22:11.252Z,1.80
2023-03-24T12:25:06.109Z,2.10
2023-03-24T12:27:43.957Z,2.50
2023-03-24T12:30:20.237Z,2.33
2023-03-24T12:32:57.887Z,1.80
2023-03-24T12:35:56.320Z,2.53
2023-03-24T12:38:42.807Z,2.10
2023-03-24T12:41:31.978Z,1.77
2023-03-24T12:44:22.778Z,2.90
2023-03-24T12:46:59.543Z,2.73
2023-03-24T12:49:47.979Z,2.57
2023-03-24T12:52:26.520Z,2.30
2023-03-24T12:55:04.799Z,2.90
2023-03-24T12:57:38.770Z,2.23
2023-03-24T13:00:12.980Z,2.30
2023-03-24T13:02:45.335Z,1.77
2023-03-24T13:05:21.403Z,2.33
2023-03-24T13:07:54.417Z,2.50
2023-03-24T13:10:27.965Z,2.17
2023-03-24T13:13:01.060Z,2.00
2023-03-24T13:15:34.513Z,2.10
2023-03-24T13:18:18.278Z,2.40
2023-03-24T13:20:49.264Z,2.10
2023-03-24T13:23:33.718Z,2.27
2023-03-24T13:26:12.317Z,2.37
2023-03-24T13:28:51.309Z,2.10
2023-03-24T13:31:22.388Z,2.20
2023-03-24T13:33:52.478Z,2.20
2023-03-24T13:36:35.835Z,2.77
2023-03-24T13:39:11.335Z,2.50
2023-03-24T13:41:41.402Z,2.27
2023-03-24T13:44:19.715Z,2.37
2023-03-24T13:47:12.675Z,2.33
2023-03-24T13:49:42.143Z,2.13
2023-03-24T13:52:27.044Z,1.73
2023-03-24T13:54:59.403Z,3.33
2023-03-24T13:57:29.544Z,2.67
2023-03-24T14:00:17.353Z,2.20
2023-03-24T14:02:49.737Z,2.20
2023-03-24T14:06:04.633Z,2.13
2023-03-24T14:08:43.900Z,1.93
2023-03-24T14:11:45.387Z,2.43
2023-03-24T14:14:24.628Z,2.07
2023-03-24T14:17:03.207Z,2.27
2023-03-24T14:19:33.846Z,2.30
2023-03-24T14:22:12.839Z,1.97
2023-03-24T14:24:42.629Z,2.10
2023-03-24T14:27:32.735Z,1.53
2023-03-24T14:30:31.348Z,1.60
2023-03-24T14:33:02.705Z,2.50
2023-03-24T14:35:35.918Z,1.83
2023-03-24T14:38:06.162Z,2.00
2023-03-24T14:40:38.473Z,2.30
2023-03-24T14:43:19.814Z,2.60
2023-03-24T14:46:01.480Z,2.07
2023-03-24T14:48:43.953Z,1.80
2023-03-24T14:51:37.261Z,1.60
2023-03-24T14:54:08.461Z,1.13
2023-03-24T14:56:41.925Z,1.67
2023-03-24T14:59:18.997Z,1.20
2023-03-24T15:01:55.879Z,1.33
2023-03-24T15:04:26.088Z,1.53
2023-03-24T15:06:54.547Z,1.17
2023-03-24T15:09:22.613Z,1.40
2023-03-24T15:11:52.414Z,1.20
2023-03-24T15:14:24.768Z,1.50
2023-03-24T15:16:57.204Z,2.13
2023-03-24T15:19:27.507Z,1.83
2023-03-24T15:22:03.006Z,2.07
2023-03-24T15:24:35.131Z,1.87
2023-03-24T15:27:33.364Z,2.00
2023-03-24T15:30:02.372Z,2.07
2023-03-24T15:32:40.374Z,2.17
2023-03-24T15:35:14.564Z,1.50
2023-03-24T15:37:48.977Z,2.10
2023-03-24T15:40:32.617Z,1.57
2023-03-24T15:43:03.006Z,2.27
2023-03-24T15:45:33.498Z,2.17
2023-03-24T15:48:08.533Z,2.73
2023-03-24T15:50:41.717Z,2.30
2023-03-24T15:53:26.803Z,1.53
2023-03-24T15:56:09.549Z,1.87
2023-03-24T15:58:50.097Z,2.20
2023-03-24T16:01:21.952Z,1.97
2023-03-24T16:03:51.371Z,1.57
2023-03-24T16:06:31.055Z,1.70
2023-03-24T16:09:01.211Z,1.60
2023-03-24T16:11:30.557Z,1.50
2023-03-24T16:13:59.912Z,1.10
2023-03-24T16:16:30.582Z,1.57
2023-03-24T16:19:01.194Z,1.90
2023-03-24T16:21:30.695Z,1.63
2023-03-24T16:23:59.438Z,1.47
2023-03-24T16:26:29.125Z,1.23
2023-03-24T16:29:04.377Z,1.73
2023-03-24T16:31:35.488Z,1.47
2023-03-24T16:34:06.204Z,1.10
2023-03-24T16:36:34.638Z,1.23
2023-03-24T16:39:04.034Z,1.33
2023-03-24T16:41:32.097Z,1.40
2023-03-24T16:44:00.597Z,1.60
2023-03-24T16:46:34.626Z,2.17
2023-03-24T16:49:08.084Z,1.30
2023-03-24T16:51:36.601Z,1.13
2023-03-24T16:54:04.887Z,1.00
2023-03-24T16:56:33.260Z,1.33
2023-03-24T16:59:01.973Z,1.10
2023-03-24T17:01:34.261Z,1.27
2023-03-24T17:04:04.311Z,1.40
2023-03-24T17:06:34.924Z,2.00
2023-03-24T17:09:04.754Z,0.97
2023-03-24T17:11:37.348Z,1.63
2023-03-24T17:14:08.674Z,1.20
2023-03-24T17:16:40.558Z,1.30
2023-03-24T17:19:10.938Z,1.27
2023-03-24T17:21:44.793Z,1.00
2023-03-24T17:24:14.505Z,1.47
2023-03-24T17:26:43.050Z,1.00
2023-03-24T17:29:14.427Z,1.37
2023-03-24T17:31:44.083Z,0.90
2023-03-24T17:36:48.115Z,0.90
2023-03-24T17:39:21.438Z,0.93
2023-03-24T17:41:50.433Z,0.70
2023-03-24T17:44:20.592Z,1.00
2023-03-24T17:46:49.145Z,0.90
2023-03-24T17:49:17.292Z,0.97
2023-03-24T17:51:49.819Z,1.03
2023-03-24T17:54:20.779Z,1.23
2023-03-24T17:56:49.069Z,1.27
2023-03-24T17:59:18.152Z,1.10
2023-03-24T18:01:47.101Z,1.00
2023-03-24T18:04:15.277Z,1.10
2023-03-24T18:06:44.506Z,1.10
2023-03-24T18:09:14.219Z,0.90
2023-03-24T18:11:42.753Z,1.00
2023-03-24T18:14:10.789Z,1.00
2023-03-24T18:16:40.551Z,1.00
2023-03-24T18:19:11.806Z,1.20
2023-03-24T18:21:40.149Z,1.20
2023-03-24T18:24:08.977Z,1.30
2023-03-24T18:26:38.464Z,1.30
2023-03-24T18:29:07.609Z,1.10
2023-03-24T18:31:35.888Z,1.13
2023-03-24T18:34:05.068Z,1.33
2023-03-24T18:36:33.558Z,1.20
2023-03-24T18:39:04.285Z,1.20
2023-03-24T18:41:37.262Z,1.00
2023-03-24T18:44:09.132Z,1.33
2023-03-24T18:46:41.701Z,1.47
2023-03-24T18:49:13.388Z,1.10
2023-03-24T18:51:42.416Z,1.20
2023-03-24T18:54:11.676Z,1.40
2023-03-24T18:56:40.929Z,1.20
2023-03-24T18:59:11.571Z,1.80
2023-03-24T19:01:40.473Z,1.60
2023-03-24T19:04:09.216Z,1.53
2023-03-24T19:06:37.691Z,2.20
2023-03-24T19:09:06.688Z,1.37
2023-03-24T19:11:34.772Z,1.50
2023-03-24T19:14:04.392Z,1.30
2023-03-24T19:16:34.500Z,1.33
2023-03-24T19:19:03.220Z,1.47
2023-03-24T19:21:31.372Z,1.40
2023-03-24T19:23:59.904Z,1.00
2023-03-24T19:26:28.485Z,1.53
2023-03-24T19:28:58.957Z,1.87
2023-03-24T19:31:27.420Z,1.50
2023-03-24T19:33:57.200Z,1.53
2023-03-24T19:36:26.131Z,1.57
2023-03-24T19:38:54.601Z,1.83
2023-03-24T19:41:26.140Z,1.57
2023-03-24T19:43:54.196Z,1.50
2023-03-24T19:46:22.488Z,1.87
2023-03-24T19:48:51.054Z,1.40
2023-03-24T19:51:21.211Z,1.90
2023-03-24T19:53:49.709Z,1.43
2023-03-24T19:56:20.502Z,1.33
2023-03-24T19:58:49.002Z,1.13
2023-03-24T20:01:19.922Z,1.57
2023-03-24T20:03:48.471Z,1.67
2023-03-24T20:06:19.179Z,1.80
2023-03-24T20:08:51.266Z,1.00
2023-03-24T20:11:19.605Z,1.37
2023-03-24T20:13:48.079Z,1.80
2023-03-24T20:16:17.633Z,1.67
2023-03-24T20:18:45.783Z,1.30
2023-03-24T20:21:19.420Z,2.23
2023-03-24T20:23:47.492Z,1.13
2023-03-24T20:26:17.363Z,1.43
2023-03-24T20:28:45.437Z,1.40
2023-03-24T20:31:14.107Z,1.60
2023-03-24T20:33:42.589Z,1.37
2023-03-24T20:36:11.414Z,1.07
2023-03-24T20:38:39.410Z,1.20
2023-03-24T20:41:08.672Z,1.30
2023-03-24T20:43:39.020Z,2.40
2023-03-24T20:46:09.480Z,1.90
2023-03-24T20:48:37.872Z,1.50
2023-03-24T20:51:06.616Z,1.30
2023-03-24T20:53:36.092Z,1.70
2023-03-24T20:56:06.945Z,1.20
2023-03-24T20:58:36.086Z,1.10
2023-03-24T21:01:09.048Z,1.70
2023-03-24T21:03:37.900Z,1.43
2023-03-24T21:06:07.529Z,1.43
2023-03-24T21:08:37.500Z,1.87
2023-03-24T21:11:06.231Z,1.37
2023-03-24T21:13:38.041Z,1.20
2023-03-24T21:16:08.997Z,1.20
2023-03-24T21:18:38.172Z,1.70
2023-03-24T21:21:07.150Z,1.63
2023-03-24T21:23:39.094Z,1.50
2023-03-24T21:26:10.537Z,1.70
2023-03-24T21:28:39.117Z,1.40
2023-03-24T21:31:11.446Z,1.37
2023-03-24T21:33:43.031Z,2.20
2023-03-24T21:36:12.072Z,1.93
2023-03-24T21:38:40.325Z,1.70
2023-03-24T21:41:09.168Z,1.90
2023-03-24T21:43:40.295Z,1.40
2023-03-24T21:46:15.775Z,1.50
2023-03-24T21:48:49.997Z,1.37
2023-03-24T21:51:20.766Z,1.00
2023-03-24T21:53:48.824Z,1.67
2023-03-24T21:56:17.820Z,1.40
2023-03-24T21:58:46.317Z,1.23
2023-03-24T22:01:17.509Z,1.90
2023-03-24T22:03:46.769Z,1.27
2023-03-24T22:06:15.652Z,1.30
2023-03-24T22:08:46.872Z,1.30
2023-03-24T22:11:15.800Z,1.30
2023-03-24T22:13:44.330Z,1.60
2023-03-24T22:16:12.382Z,1.10
2023-03-24T22:18:43.239Z,1.93
2023-03-24T22:21:12.868Z,1.30
2023-03-24T22:23:43.039Z,1.30
2023-03-24T22:26:13.631Z,1.40
2023-03-24T22:28:43.149Z,1.00
2023-03-24T22:31:13.264Z,1.10
2023-03-24T22:33:44.076Z,0.90
2023-03-24T22:36:12.733Z,0.90
2023-03-24T22:38:42.281Z,1.00
2023-03-24T22:41:13.380Z,1.10
2023-03-24T22:43:42.482Z,0.87
2023-03-24T22:46:11.518Z,0.80
2023-03-24T22:48:40.710Z,1.00
2023-03-24T22:51:12.440Z,0.87
2023-03-24T22:53:43.879Z,0.90
2023-03-24T22:56:11.966Z,0.80
2023-03-24T22:58:41.496Z,1.10
2023-03-24T23:01:11.374Z,0.87
2023-03-24T23:03:39.623Z,0.80
2023-03-24T23:06:12.502Z,1.10
2023-03-24T23:08:40.506Z,0.90
2023-03-24T23:11:09.796Z,1.00
2023-03-24T23:13:39.553Z,0.70
2023-03-24T23:16:08.570Z,0.87
2023-03-24T23:18:37.302Z,0.80
2023-03-24T23:21:08.997Z,1.30
2023-03-24T23:23:40.763Z,1.20
2023-03-24T23:26:25.137Z,1.13
2023-03-24T23:28:55.430Z,1.57
2023-03-24T23:31:25.681Z,1.47
2023-03-24T23:33:56.619Z,1.30
2023-03-24T23:36:26.231Z,1.00
2023-03-24T23:38:56.910Z,1.03
2023-03-24T23:41:25.427Z,1.30
2023-03-24T23:43:57.586Z,1.10
2023-03-24T23:46:25.738Z,1.10
2023-03-24T23:48:54.175Z,1.10
2023-03-24T23:51:22.928Z,1.20
2023-03-24T23:53:51.800Z,1.10
2023-03-24T23:56:23.133Z,0.90
2023-03-24T23:58:54.047Z,1.10
